sensor_id;sensor_type;location;lat;lon;timestamp;temperature;humidity
24518;DHT22;12678;51.336;12.406;2023-07-20T00:00:51;22.20;99.90
24518;DHT22;12678;51.336;12.406;2023-07-20T00:03:19;22.30;99.90
24518;DHT22;12678;51.336;12.406;2023-07-20T00:05:48;22.30;99.90
24518;DHT22;12678;51.336;12.406;2023-07-20T00:08:15;22.30;99.90
24518;DHT22;12678;51.336;12.406;2023-07-20T00:10:41;22.10;99.90
24518;DHT22;12678;51.336;12.406;2023-07-20T00:13:06;22.10;99.90
24518;DHT22;12678;51.336;12.406;2023-07-20T00:15:32;22.20;99.90
24518;DHT22;12678;51.336;12.406;2023-07-20T00:17:58;22.20;99.90
24518;DHT22;12678;51.336;12.406;2023-07-20T00:20:24;22.30;99.90
24518;DHT22;12678;51.336;12.406;2023-07-20T00:22:50;22.30;99.90
24518;DHT22;12678;51.336;12.406;2023-07-20T00:25:17;22.20;99.90
24518;DHT22;12678;51.336;12.406;2023-07-20T00:27:42;22.30;99.90
24518;DHT22;12678;51.336;12.406;2023-07-20T00:30:08;22.10;99.90
24518;DHT22;12678;51.336;12.406;2023-07-20T00:32:34;22.20;99.90
24518;DHT22;12678;51.336;12.406;2023-07-20T00:35:00;22.20;99.90
24518;DHT22;12678;51.336;12.406;2023-07-20T00:37:25;22.30;99.90
24518;DHT22;12678;51.336;12.406;2023-07-20T00:39:51;22.30;99.90
24518;DHT22;12678;51.336;12.406;2023-07-20T00:42:17;22.30;99.90
24518;DHT22;12678;51.336;12.406;2023-07-20T00:44:43;22.30;99.90
24518;DHT22;12678;51.336;12.406;2023-07-20T00:47:08;22.40;99.90
24518;DHT22;12678;51.336;12.406;2023-07-20T00:49:34;22.40;99.90
24518;DHT22;12678;51.336;12.406;2023-07-20T00:52:01;22.40;99.90
24518;DHT22;12678;51.336;12.406;2023-07-20T00:54:28;22.40;99.90
24518;DHT22;12678;51.336;12.406;2023-07-20T00:56:55;22.50;99.90
24518;DHT22;12678;51.336;12.406;2023-07-20T00:59:21;22.60;99.90
24518;DHT22;12678;51.336;12.406;2023-07-20T01:01:47;22.50;99.90
24518;DHT22;12678;51.336;12.406;2023-07-20T01:04:13;22.40;99.90
24518;DHT22;12678;51.336;12.406;2023-07-20T01:09:14;22.40;99.90
24518;DHT22;12678;51.336;12.406;2023-07-20T01:14:14;22.50;99.90
24518;DHT22;12678;51.336;12.406;2023-07-20T01:16:40;22.50;99.90
24518;DHT22;12678;51.336;12.406;2023-07-20T01:19:06;22.50;99.90
24518;DHT22;12678;51.336;12.406;2023-07-20T01:21:45;22.50;99.90
24518;DHT22;12678;51.336;12.406;2023-07-20T01:29:41;22.40;99.90
24518;DHT22;12678;51.336;12.406;2023-07-20T01:32:09;22.40;99.90
24518;DHT22;12678;51.336;12.406;2023-07-20T01:34:36;22.30;99.90
24518;DHT22;12678;51.336;12.406;2023-07-20T01:37:02;22.30;99.90
24518;DHT22;12678;51.336;12.406;2023-07-20T01:39:29;22.30;99.90
24518;DHT22;12678;51.336;12.406;2023-07-20T01:41:55;22.20;99.90
24518;DHT22;12678;51.336;12.406;2023-07-20T01:44:22;22.20;99.90
24518;DHT22;12678;51.336;12.406;2023-07-20T01:46:47;22.20;99.90
24518;DHT22;12678;51.336;12.406;2023-07-20T01:49:13;22.20;99.90
24518;DHT22;12678;51.336;12.406;2023-07-20T01:51:38;22.20;99.90
24518;DHT22;12678;51.336;12.406;2023-07-20T01:54:04;22.20;99.90
24518;DHT22;12678;51.336;12.406;2023-07-20T01:56:29;22.10;99.90
24518;DHT22;12678;51.336;12.406;2023-07-20T01:58:55;22.00;99.90
24518;DHT22;12678;51.336;12.406;2023-07-20T02:01:20;22.00;99.90
24518;DHT22;12678;51.336;12.406;2023-07-20T02:03:46;21.80;99.90
24518;DHT22;12678;51.336;12.406;2023-07-20T02:06:12;21.90;99.90
24518;DHT22;12678;51.336;12.406;2023-07-20T02:08:37;21.90;99.90
24518;DHT22;12678;51.336;12.406;2023-07-20T02:11:03;21.90;99.90
24518;DHT22;12678;51.336;12.406;2023-07-20T02:13:29;21.80;99.90
24518;DHT22;12678;51.336;12.406;2023-07-20T02:15:55;21.90;99.90
24518;DHT22;12678;51.336;12.406;2023-07-20T02:18:20;22.00;99.90
24518;DHT22;12678;51.336;12.406;2023-07-20T02:20:46;22.00;99.90
24518;DHT22;12678;51.336;12.406;2023-07-20T02:23:11;22.10;99.90
24518;DHT22;12678;51.336;12.406;2023-07-20T02:25:37;22.00;99.90
24518;DHT22;12678;51.336;12.406;2023-07-20T02:28:04;22.10;99.90
24518;DHT22;12678;51.336;12.406;2023-07-20T02:30:29;22.00;99.90
24518;DHT22;12678;51.336;12.406;2023-07-20T02:32:55;22.10;99.90
24518;DHT22;12678;51.336;12.406;2023-07-20T02:35:24;22.10;99.90
24518;DHT22;12678;51.336;12.406;2023-07-20T02:37:49;22.00;99.90
24518;DHT22;12678;51.336;12.406;2023-07-20T02:40:15;22.00;99.90
24518;DHT22;12678;51.336;12.406;2023-07-20T02:42:40;22.20;99.90
24518;DHT22;12678;51.336;12.406;2023-07-20T02:45:06;22.20;99.90
24518;DHT22;12678;51.336;12.406;2023-07-20T02:47:32;22.20;99.90
24518;DHT22;12678;51.336;12.406;2023-07-20T02:49:59;22.20;99.90
24518;DHT22;12678;51.336;12.406;2023-07-20T02:52:24;22.10;99.90
24518;DHT22;12678;51.336;12.406;2023-07-20T02:54:51;22.20;99.90
24518;DHT22;12678;51.336;12.406;2023-07-20T02:57:17;22.20;99.90
24518;DHT22;12678;51.336;12.406;2023-07-20T02:59:42;22.10;99.90
24518;DHT22;12678;51.336;12.406;2023-07-20T03:02:08;22.10;99.90
24518;DHT22;12678;51.336;12.406;2023-07-20T03:04:36;22.10;99.90
24518;DHT22;12678;51.336;12.406;2023-07-20T03:07:05;22.10;99.90
24518;DHT22;12678;51.336;12.406;2023-07-20T03:09:32;22.00;99.90
24518;DHT22;12678;51.336;12.406;2023-07-20T03:11:57;22.10;99.90
24518;DHT22;12678;51.336;12.406;2023-07-20T03:14:23;22.10;99.90
24518;DHT22;12678;51.336;12.406;2023-07-20T03:16:49;22.00;99.90
24518;DHT22;12678;51.336;12.406;2023-07-20T03:19:14;21.90;99.90
24518;DHT22;12678;51.336;12.406;2023-07-20T03:21:40;21.80;99.90
24518;DHT22;12678;51.336;12.406;2023-07-20T03:24:07;21.80;99.90
24518;DHT22;12678;51.336;12.406;2023-07-20T03:26:34;21.80;99.90
24518;DHT22;12678;51.336;12.406;2023-07-20T03:29:00;22.00;99.90
24518;DHT22;12678;51.336;12.406;2023-07-20T03:31:26;22.10;99.90
24518;DHT22;12678;51.336;12.406;2023-07-20T03:33:52;22.00;99.90
24518;DHT22;12678;51.336;12.406;2023-07-20T03:36:17;21.80;99.90
24518;DHT22;12678;51.336;12.406;2023-07-20T03:38:43;21.90;99.90
24518;DHT22;12678;51.336;12.406;2023-07-20T03:41:08;21.90;99.90
24518;DHT22;12678;51.336;12.406;2023-07-20T03:43:34;21.80;99.90
24518;DHT22;12678;51.336;12.406;2023-07-20T03:46:00;21.90;99.90
24518;DHT22;12678;51.336;12.406;2023-07-20T03:48:26;21.90;99.90
24518;DHT22;12678;51.336;12.406;2023-07-20T03:50:53;22.00;99.90
24518;DHT22;12678;51.336;12.406;2023-07-20T03:53:19;22.00;99.90
24518;DHT22;12678;51.336;12.406;2023-07-20T03:55:49;22.00;99.90
24518;DHT22;12678;51.336;12.406;2023-07-20T03:58:15;21.90;99.90
24518;DHT22;12678;51.336;12.406;2023-07-20T04:00:48;22.00;99.90
24518;DHT22;12678;51.336;12.406;2023-07-20T04:03:16;21.90;99.90
24518;DHT22;12678;51.336;12.406;2023-07-20T04:05:42;21.90;99.90
24518;DHT22;12678;51.336;12.406;2023-07-20T04:08:09;21.70;99.90
24518;DHT22;12678;51.336;12.406;2023-07-20T04:10:36;21.80;99.90
24518;DHT22;12678;51.336;12.406;2023-07-20T04:13:03;21.90;99.90
24518;DHT22;12678;51.336;12.406;2023-07-20T04:15:29;22.00;99.90
24518;DHT22;12678;51.336;12.406;2023-07-20T04:17:54;21.90;99.90
24518;DHT22;12678;51.336;12.406;2023-07-20T04:20:22;22.00;99.90
24518;DHT22;12678;51.336;12.406;2023-07-20T04:22:47;22.00;99.90
24518;DHT22;12678;51.336;12.406;2023-07-20T04:25:13;22.00;99.90
24518;DHT22;12678;51.336;12.406;2023-07-20T04:27:38;21.90;99.90
24518;DHT22;12678;51.336;12.406;2023-07-20T04:30:07;22.00;99.90
24518;DHT22;12678;51.336;12.406;2023-07-20T04:32:33;21.90;99.90
24518;DHT22;12678;51.336;12.406;2023-07-20T04:34:59;22.00;99.90
24518;DHT22;12678;51.336;12.406;2023-07-20T04:37:25;22.10;99.90
24518;DHT22;12678;51.336;12.406;2023-07-20T04:39:50;22.20;99.90
24518;DHT22;12678;51.336;12.406;2023-07-20T04:42:16;21.90;99.90
24518;DHT22;12678;51.336;12.406;2023-07-20T04:44:42;21.80;99.90
24518;DHT22;12678;51.336;12.406;2023-07-20T04:47:08;21.70;99.90
24518;DHT22;12678;51.336;12.406;2023-07-20T04:49:36;21.70;99.90
24518;DHT22;12678;51.336;12.406;2023-07-20T04:52:02;21.80;99.90
24518;DHT22;12678;51.336;12.406;2023-07-20T04:54:28;21.80;99.90
24518;DHT22;12678;51.336;12.406;2023-07-20T04:56:54;21.90;99.90
24518;DHT22;12678;51.336;12.406;2023-07-20T04:59:19;22.00;99.90
24518;DHT22;12678;51.336;12.406;2023-07-20T05:01:46;21.90;99.90
24518;DHT22;12678;51.336;12.406;2023-07-20T05:04:12;21.90;99.90
24518;DHT22;12678;51.336;12.406;2023-07-20T05:06:38;21.90;99.90
24518;DHT22;12678;51.336;12.406;2023-07-20T05:09:04;21.70;99.90
24518;DHT22;12678;51.336;12.406;2023-07-20T05:11:33;21.90;99.90
24518;DHT22;12678;51.336;12.406;2023-07-20T05:13:59;21.90;99.90
24518;DHT22;12678;51.336;12.406;2023-07-20T05:16:25;21.90;99.90
24518;DHT22;12678;51.336;12.406;2023-07-20T05:18:51;21.90;99.90
24518;DHT22;12678;51.336;12.406;2023-07-20T05:21:18;22.00;99.90
24518;DHT22;12678;51.336;12.406;2023-07-20T05:23:43;21.80;99.90
24518;DHT22;12678;51.336;12.406;2023-07-20T05:26:10;21.90;99.90
24518;DHT22;12678;51.336;12.406;2023-07-20T05:28:36;22.00;99.90
24518;DHT22;12678;51.336;12.406;2023-07-20T05:31:05;22.10;99.90
24518;DHT22;12678;51.336;12.406;2023-07-20T05:33:31;22.00;99.90
24518;DHT22;12678;51.336;12.406;2023-07-20T05:35:57;22.00;99.90
24518;DHT22;12678;51.336;12.406;2023-07-20T05:38:23;22.00;99.90
24518;DHT22;12678;51.336;12.406;2023-07-20T05:40:48;22.00;99.90
24518;DHT22;12678;51.336;12.406;2023-07-20T05:43:14;22.00;99.90
24518;DHT22;12678;51.336;12.406;2023-07-20T05:45:43;22.00;99.90
24518;DHT22;12678;51.336;12.406;2023-07-20T05:48:10;22.00;99.90
24518;DHT22;12678;51.336;12.406;2023-07-20T05:50:38;22.10;99.90
24518;DHT22;12678;51.336;12.406;2023-07-20T05:53:03;22.00;99.90
24518;DHT22;12678;51.336;12.406;2023-07-20T05:55:29;22.00;99.90
24518;DHT22;12678;51.336;12.406;2023-07-20T05:57:54;21.90;99.90
24518;DHT22;12678;51.336;12.406;2023-07-20T06:00:21;21.90;99.90
24518;DHT22;12678;51.336;12.406;2023-07-20T06:02:53;21.80;99.90
24518;DHT22;12678;51.336;12.406;2023-07-20T06:05:19;22.10;99.90
24518;DHT22;12678;51.336;12.406;2023-07-20T06:07:46;22.20;99.90
24518;DHT22;12678;51.336;12.406;2023-07-20T06:10:12;22.40;99.90
24518;DHT22;12678;51.336;12.406;2023-07-20T06:12:38;22.50;99.90
24518;DHT22;12678;51.336;12.406;2023-07-20T06:15:05;22.90;99.90
24518;DHT22;12678;51.336;12.406;2023-07-20T06:17:31;23.10;99.90
24518;DHT22;12678;51.336;12.406;2023-07-20T06:19:57;23.00;99.90
24518;DHT22;12678;51.336;12.406;2023-07-20T06:22:22;23.20;99.90
24518;DHT22;12678;51.336;12.406;2023-07-20T06:24:48;23.20;99.90
24518;DHT22;12678;51.336;12.406;2023-07-20T06:27:13;23.10;99.90
24518;DHT22;12678;51.336;12.406;2023-07-20T06:29:39;23.20;99.90
24518;DHT22;12678;51.336;12.406;2023-07-20T06:32:05;23.20;99.90
24518;DHT22;12678;51.336;12.406;2023-07-20T06:34:31;23.20;99.90
24518;DHT22;12678;51.336;12.406;2023-07-20T06:37:02;23.10;99.90
24518;DHT22;12678;51.336;12.406;2023-07-20T06:39:29;23.20;99.90
24518;DHT22;12678;51.336;12.406;2023-07-20T06:41:55;23.20;99.90
24518;DHT22;12678;51.336;12.406;2023-07-20T06:44:20;23.30;99.90
24518;DHT22;12678;51.336;12.406;2023-07-20T06:46:46;23.30;99.90
24518;DHT22;12678;51.336;12.406;2023-07-20T06:49:24;23.40;99.90
24518;DHT22;12678;51.336;12.406;2023-07-20T06:51:51;23.90;99.90
24518;DHT22;12678;51.336;12.406;2023-07-20T06:54:17;24.20;99.90
24518;DHT22;12678;51.336;12.406;2023-07-20T06:56:42;24.30;99.90
24518;DHT22;12678;51.336;12.406;2023-07-20T06:59:08;23.80;99.90
24518;DHT22;12678;51.336;12.406;2023-07-20T07:01:34;23.70;99.90
24518;DHT22;12678;51.336;12.406;2023-07-20T07:03:59;23.80;99.90
24518;DHT22;12678;51.336;12.406;2023-07-20T07:06:25;23.80;99.90
24518;DHT22;12678;51.336;12.406;2023-07-20T07:08:51;23.70;99.90
24518;DHT22;12678;51.336;12.406;2023-07-20T07:11:17;23.20;99.90
24518;DHT22;12678;51.336;12.406;2023-07-20T07:13:43;23.20;99.90
24518;DHT22;12678;51.336;12.406;2023-07-20T07:16:12;23.10;99.90
24518;DHT22;12678;51.336;12.406;2023-07-20T07:18:37;22.90;99.90
24518;DHT22;12678;51.336;12.406;2023-07-20T07:21:05;22.50;99.90
24518;DHT22;12678;51.336;12.406;2023-07-20T07:23:31;22.50;99.90
24518;DHT22;12678;51.336;12.406;2023-07-20T07:25:57;22.70;99.90
24518;DHT22;12678;51.336;12.406;2023-07-20T07:28:22;22.40;99.90
24518;DHT22;12678;51.336;12.406;2023-07-20T07:30:48;22.40;99.90
24518;DHT22;12678;51.336;12.406;2023-07-20T07:33:14;22.60;99.90
24518;DHT22;12678;51.336;12.406;2023-07-20T07:35:40;22.70;99.90
24518;DHT22;12678;51.336;12.406;2023-07-20T07:38:06;22.70;99.90
24518;DHT22;12678;51.336;12.406;2023-07-20T07:40:32;22.50;99.90
24518;DHT22;12678;51.336;12.406;2023-07-20T07:42:58;22.50;99.90
24518;DHT22;12678;51.336;12.406;2023-07-20T07:45:23;22.40;99.90
24518;DHT22;12678;51.336;12.406;2023-07-20T07:47:49;22.30;99.90
24518;DHT22;12678;51.336;12.406;2023-07-20T07:50:15;22.50;99.90
24518;DHT22;12678;51.336;12.406;2023-07-20T07:52:40;22.50;99.90
24518;DHT22;12678;51.336;12.406;2023-07-20T07:55:06;22.60;99.90
24518;DHT22;12678;51.336;12.406;2023-07-20T07:57:32;22.50;99.90
24518;DHT22;12678;51.336;12.406;2023-07-20T07:59:58;22.50;99.90
24518;DHT22;12678;51.336;12.406;2023-07-20T08:02:24;22.20;99.90
24518;DHT22;12678;51.336;12.406;2023-07-20T08:04:50;22.70;99.90
24518;DHT22;12678;51.336;12.406;2023-07-20T08:07:17;22.50;99.90
24518;DHT22;12678;51.336;12.406;2023-07-20T08:09:43;22.80;99.90
24518;DHT22;12678;51.336;12.406;2023-07-20T08:12:09;22.80;99.90
24518;DHT22;12678;51.336;12.406;2023-07-20T08:14:34;22.80;99.90
24518;DHT22;12678;51.336;12.406;2023-07-20T08:17:00;22.70;99.90
24518;DHT22;12678;51.336;12.406;2023-07-20T08:19:25;22.60;99.90
24518;DHT22;12678;51.336;12.406;2023-07-20T08:21:51;22.30;99.90
24518;DHT22;12678;51.336;12.406;2023-07-20T08:24:16;22.30;99.90
24518;DHT22;12678;51.336;12.406;2023-07-20T08:26:42;22.40;99.90
24518;DHT22;12678;51.336;12.406;2023-07-20T08:29:08;22.30;99.90
24518;DHT22;12678;51.336;12.406;2023-07-20T08:31:34;22.70;99.90
24518;DHT22;12678;51.336;12.406;2023-07-20T08:33:59;22.90;99.90
24518;DHT22;12678;51.336;12.406;2023-07-20T08:36:25;22.80;99.90
24518;DHT22;12678;51.336;12.406;2023-07-20T08:38:51;22.80;99.90
24518;DHT22;12678;51.336;12.406;2023-07-20T08:41:17;22.50;99.90
24518;DHT22;12678;51.336;12.406;2023-07-20T08:43:46;22.10;99.90
24518;DHT22;12678;51.336;12.406;2023-07-20T08:46:14;22.20;99.90
24518;DHT22;12678;51.336;12.406;2023-07-20T08:48:42;22.20;99.90
24518;DHT22;12678;51.336;12.406;2023-07-20T08:51:09;22.40;99.90
24518;DHT22;12678;51.336;12.406;2023-07-20T08:53:36;22.60;99.90
24518;DHT22;12678;51.336;12.406;2023-07-20T08:56:04;22.50;99.90
24518;DHT22;12678;51.336;12.406;2023-07-20T08:58:30;22.20;99.90
24518;DHT22;12678;51.336;12.406;2023-07-20T09:00:56;22.30;99.90
24518;DHT22;12678;51.336;12.406;2023-07-20T09:03:25;22.60;99.90
24518;DHT22;12678;51.336;12.406;2023-07-20T09:05:51;23.00;99.90
24518;DHT22;12678;51.336;12.406;2023-07-20T09:08:17;23.30;99.90
24518;DHT22;12678;51.336;12.406;2023-07-20T09:10:43;23.10;99.90
24518;DHT22;12678;51.336;12.406;2023-07-20T09:13:09;23.50;99.90
24518;DHT22;12678;51.336;12.406;2023-07-20T09:15:34;23.70;99.90
24518;DHT22;12678;51.336;12.406;2023-07-20T09:18:01;23.60;99.90
24518;DHT22;12678;51.336;12.406;2023-07-20T09:20:32;23.50;99.90
24518;DHT22;12678;51.336;12.406;2023-07-20T09:22:59;23.40;99.90
24518;DHT22;12678;51.336;12.406;2023-07-20T09:25:24;23.10;99.90
24518;DHT22;12678;51.336;12.406;2023-07-20T09:27:52;23.00;99.90
24518;DHT22;12678;51.336;12.406;2023-07-20T09:30:17;23.00;99.90
24518;DHT22;12678;51.336;12.406;2023-07-20T09:32:48;23.00;99.90
24518;DHT22;12678;51.336;12.406;2023-07-20T09:35:18;22.90;99.90
24518;DHT22;12678;51.336;12.406;2023-07-20T09:40:18;22.90;99.90
24518;DHT22;12678;51.336;12.406;2023-07-20T09:42:44;23.00;99.90
24518;DHT22;12678;51.336;12.406;2023-07-20T09:45:10;22.80;99.90
24518;DHT22;12678;51.336;12.406;2023-07-20T09:47:36;22.80;99.90
24518;DHT22;12678;51.336;12.406;2023-07-20T09:50:08;22.80;99.90
24518;DHT22;12678;51.336;12.406;2023-07-20T09:52:40;22.60;99.90
24518;DHT22;12678;51.336;12.406;2023-07-20T09:55:07;22.40;99.90
24518;DHT22;12678;51.336;12.406;2023-07-20T09:57:34;22.10;99.90
24518;DHT22;12678;51.336;12.406;2023-07-20T10:00:06;22.40;99.90
24518;DHT22;12678;51.336;12.406;2023-07-20T10:02:45;22.10;99.90
24518;DHT22;12678;51.336;12.406;2023-07-20T10:05:14;21.50;99.90
24518;DHT22;12678;51.336;12.406;2023-07-20T10:07:47;21.50;99.90
24518;DHT22;12678;51.336;12.406;2023-07-20T10:10:13;21.40;99.90
24518;DHT22;12678;51.336;12.406;2023-07-20T10:12:39;21.60;99.90
24518;DHT22;12678;51.336;12.406;2023-07-20T10:15:20;21.50;99.90
24518;DHT22;12678;51.336;12.406;2023-07-20T10:18:16;21.60;99.90
24518;DHT22;12678;51.336;12.406;2023-07-20T10:20:43;21.90;99.90
24518;DHT22;12678;51.336;12.406;2023-07-20T10:23:10;21.90;99.90
24518;DHT22;12678;51.336;12.406;2023-07-20T10:25:36;21.70;99.90
24518;DHT22;12678;51.336;12.406;2023-07-20T10:28:06;21.70;99.90
24518;DHT22;12678;51.336;12.406;2023-07-20T10:30:35;21.70;99.90
24518;DHT22;12678;51.336;12.406;2023-07-20T10:33:09;21.90;99.90
24518;DHT22;12678;51.336;12.406;2023-07-20T10:35:55;21.60;99.90
24518;DHT22;12678;51.336;12.406;2023-07-20T10:38:40;21.50;99.90
24518;DHT22;12678;51.336;12.406;2023-07-20T10:41:19;21.60;99.90
24518;DHT22;12678;51.336;12.406;2023-07-20T10:43:46;21.50;99.90
24518;DHT22;12678;51.336;12.406;2023-07-20T10:46:12;21.50;99.90
24518;DHT22;12678;51.336;12.406;2023-07-20T10:49:01;21.70;99.90
24518;DHT22;12678;51.336;12.406;2023-07-20T10:51:31;21.70;99.90
24518;DHT22;12678;51.336;12.406;2023-07-20T10:54:03;21.80;99.90
24518;DHT22;12678;51.336;12.406;2023-07-20T10:56:29;21.90;99.90
24518;DHT22;12678;51.336;12.406;2023-07-20T10:58:58;22.00;99.90
24518;DHT22;12678;51.336;12.406;2023-07-20T11:01:28;22.20;99.90
24518;DHT22;12678;51.336;12.406;2023-07-20T11:03:58;22.20;99.90
24518;DHT22;12678;51.336;12.406;2023-07-20T11:09:14;22.40;99.90
24518;DHT22;12678;51.336;12.406;2023-07-20T11:11:42;22.50;99.90
24518;DHT22;12678;51.336;12.406;2023-07-20T11:14:09;22.60;99.90
24518;DHT22;12678;51.336;12.406;2023-07-20T11:16:44;22.70;99.90
24518;DHT22;12678;51.336;12.406;2023-07-20T11:19:22;22.70;99.90
24518;DHT22;12678;51.336;12.406;2023-07-20T11:21:58;22.70;99.90
24518;DHT22;12678;51.336;12.406;2023-07-20T11:24:24;22.60;99.90
24518;DHT22;12678;51.336;12.406;2023-07-20T11:26:51;22.70;99.90
24518;DHT22;12678;51.336;12.406;2023-07-20T11:29:19;22.60;99.90
24518;DHT22;12678;51.336;12.406;2023-07-20T11:31:45;22.50;99.90
24518;DHT22;12678;51.336;12.406;2023-07-20T11:34:17;22.50;99.90
24518;DHT22;12678;51.336;12.406;2023-07-20T11:36:44;22.40;99.90
24518;DHT22;12678;51.336;12.406;2023-07-20T11:39:12;22.40;99.90
24518;DHT22;12678;51.336;12.406;2023-07-20T11:41:41;22.40;99.90
24518;DHT22;12678;51.336;12.406;2023-07-20T11:44:10;22.40;99.90
24518;DHT22;12678;51.336;12.406;2023-07-20T11:46:39;22.10;99.90
24518;DHT22;12678;51.336;12.406;2023-07-20T11:49:05;22.30;99.90
24518;DHT22;12678;51.336;12.406;2023-07-20T11:51:31;22.10;99.90
24518;DHT22;12678;51.336;12.406;2023-07-20T11:53:58;22.30;99.90
24518;DHT22;12678;51.336;12.406;2023-07-20T11:56:25;22.40;99.90
24518;DHT22;12678;51.336;12.406;2023-07-20T11:58:54;22.30;99.90
24518;DHT22;12678;51.336;12.406;2023-07-20T12:01:19;22.50;99.90
24518;DHT22;12678;51.336;12.406;2023-07-20T12:03:48;22.60;99.90
24518;DHT22;12678;51.336;12.406;2023-07-20T12:06:14;22.60;99.90
24518;DHT22;12678;51.336;12.406;2023-07-20T12:08:41;22.70;99.90
24518;DHT22;12678;51.336;12.406;2023-07-20T12:11:08;22.70;99.90
24518;DHT22;12678;51.336;12.406;2023-07-20T12:13:44;22.70;99.90
24518;DHT22;12678;51.336;12.406;2023-07-20T12:16:11;22.60;99.90
24518;DHT22;12678;51.336;12.406;2023-07-20T12:18:37;22.50;99.90
24518;DHT22;12678;51.336;12.406;2023-07-20T12:21:03;22.70;99.90
24518;DHT22;12678;51.336;12.406;2023-07-20T12:23:36;22.70;99.90
24518;DHT22;12678;51.336;12.406;2023-07-20T12:26:02;22.90;99.90
24518;DHT22;12678;51.336;12.406;2023-07-20T12:28:29;23.00;99.90
24518;DHT22;12678;51.336;12.406;2023-07-20T12:30:55;23.10;99.90
24518;DHT22;12678;51.336;12.406;2023-07-20T12:33:24;23.10;99.90
24518;DHT22;12678;51.336;12.406;2023-07-20T12:35:49;23.20;99.90
24518;DHT22;12678;51.336;12.406;2023-07-20T12:38:15;23.30;99.90
24518;DHT22;12678;51.336;12.406;2023-07-20T12:40:45;23.30;99.90
24518;DHT22;12678;51.336;12.406;2023-07-20T12:43:10;23.30;99.90
24518;DHT22;12678;51.336;12.406;2023-07-20T12:45:37;23.30;99.90
24518;DHT22;12678;51.336;12.406;2023-07-20T12:48:03;23.20;99.90
24518;DHT22;12678;51.336;12.406;2023-07-20T12:50:29;23.20;99.90
24518;DHT22;12678;51.336;12.406;2023-07-20T12:52:55;23.30;99.90
24518;DHT22;12678;51.336;12.406;2023-07-20T12:55:21;23.40;99.90
24518;DHT22;12678;51.336;12.406;2023-07-20T12:57:46;23.50;99.90
24518;DHT22;12678;51.336;12.406;2023-07-20T13:00:14;23.30;99.90
24518;DHT22;12678;51.336;12.406;2023-07-20T13:02:40;23.30;99.90
24518;DHT22;12678;51.336;12.406;2023-07-20T13:05:07;23.40;99.90
24518;DHT22;12678;51.336;12.406;2023-07-20T13:07:34;23.40;99.90
24518;DHT22;12678;51.336;12.406;2023-07-20T13:10:00;23.50;99.90
24518;DHT22;12678;51.336;12.406;2023-07-20T13:12:28;23.50;99.90
24518;DHT22;12678;51.336;12.406;2023-07-20T13:14:55;23.20;99.90
24518;DHT22;12678;51.336;12.406;2023-07-20T13:17:22;23.30;99.90
24518;DHT22;12678;51.336;12.406;2023-07-20T13:19:47;23.30;99.90
24518;DHT22;12678;51.336;12.406;2023-07-20T13:22:13;23.30;99.90
24518;DHT22;12678;51.336;12.406;2023-07-20T13:24:40;23.20;99.90
24518;DHT22;12678;51.336;12.406;2023-07-20T13:27:06;23.20;99.90
24518;DHT22;12678;51.336;12.406;2023-07-20T13:29:31;23.00;99.90
24518;DHT22;12678;51.336;12.406;2023-07-20T13:31:58;23.00;99.90
24518;DHT22;12678;51.336;12.406;2023-07-20T13:34:25;23.10;99.90
24518;DHT22;12678;51.336;12.406;2023-07-20T13:36:51;23.20;99.90
24518;DHT22;12678;51.336;12.406;2023-07-20T13:39:17;23.40;99.90
24518;DHT22;12678;51.336;12.406;2023-07-20T13:41:42;23.40;99.90
24518;DHT22;12678;51.336;12.406;2023-07-20T13:44:08;23.50;99.90
24518;DHT22;12678;51.336;12.406;2023-07-20T13:46:34;23.50;99.90
24518;DHT22;12678;51.336;12.406;2023-07-20T13:49:00;23.40;99.90
24518;DHT22;12678;51.336;12.406;2023-07-20T13:51:25;23.30;99.90
24518;DHT22;12678;51.336;12.406;2023-07-20T13:53:51;23.40;99.90
24518;DHT22;12678;51.336;12.406;2023-07-20T13:56:17;23.50;99.90
24518;DHT22;12678;51.336;12.406;2023-07-20T13:58:43;23.50;99.90
24518;DHT22;12678;51.336;12.406;2023-07-20T14:01:08;23.50;99.90
24518;DHT22;12678;51.336;12.406;2023-07-20T14:03:34;23.40;99.90
24518;DHT22;12678;51.336;12.406;2023-07-20T14:05:59;23.40;99.90
24518;DHT22;12678;51.336;12.406;2023-07-20T14:08:25;23.50;99.90
24518;DHT22;12678;51.336;12.406;2023-07-20T14:10:50;23.20;99.90
24518;DHT22;12678;51.336;12.406;2023-07-20T14:13:16;23.20;99.90
24518;DHT22;12678;51.336;12.406;2023-07-20T14:15:41;23.20;99.90
24518;DHT22;12678;51.336;12.406;2023-07-20T14:18:07;23.20;99.90
24518;DHT22;12678;51.336;12.406;2023-07-20T14:20:33;23.30;99.90
24518;DHT22;12678;51.336;12.406;2023-07-20T14:22:58;23.20;99.90
24518;DHT22;12678;51.336;12.406;2023-07-20T14:25:25;23.20;99.90
24518;DHT22;12678;51.336;12.406;2023-07-20T14:27:50;23.30;99.90
24518;DHT22;12678;51.336;12.406;2023-07-20T14:30:16;23.50;99.90
24518;DHT22;12678;51.336;12.406;2023-07-20T14:32:41;23.50;99.90
24518;DHT22;12678;51.336;12.406;2023-07-20T14:35:07;23.50;99.90
24518;DHT22;12678;51.336;12.406;2023-07-20T14:37:34;23.50;99.90
24518;DHT22;12678;51.336;12.406;2023-07-20T14:40:00;23.50;99.90
24518;DHT22;12678;51.336;12.406;2023-07-20T14:42:26;23.50;99.90
24518;DHT22;12678;51.336;12.406;2023-07-20T14:44:51;23.50;99.90
24518;DHT22;12678;51.336;12.406;2023-07-20T14:47:17;23.50;99.80
24518;DHT22;12678;51.336;12.406;2023-07-20T14:49:43;23.50;99.80
24518;DHT22;12678;51.336;12.406;2023-07-20T14:52:09;23.40;99.50
24518;DHT22;12678;51.336;12.406;2023-07-20T14:54:35;23.40;99.00
24518;DHT22;12678;51.336;12.406;2023-07-20T14:57:00;23.30;99.00
24518;DHT22;12678;51.336;12.406;2023-07-20T14:59:26;23.40;99.00
24518;DHT22;12678;51.336;12.406;2023-07-20T15:01:51;23.40;98.50
24518;DHT22;12678;51.336;12.406;2023-07-20T15:04:18;23.20;98.80
24518;DHT22;12678;51.336;12.406;2023-07-20T15:06:44;23.30;98.90
24518;DHT22;12678;51.336;12.406;2023-07-20T15:09:09;23.20;98.50
24518;DHT22;12678;51.336;12.406;2023-07-20T15:11:36;23.20;99.10
24518;DHT22;12678;51.336;12.406;2023-07-20T15:14:02;23.30;98.90
24518;DHT22;12678;51.336;12.406;2023-07-20T15:16:27;23.40;98.20
24518;DHT22;12678;51.336;12.406;2023-07-20T15:18:53;23.40;97.80
24518;DHT22;12678;51.336;12.406;2023-07-20T15:21:18;23.40;98.00
24518;DHT22;12678;51.336;12.406;2023-07-20T15:23:44;23.40;97.80
24518;DHT22;12678;51.336;12.406;2023-07-20T15:26:10;23.50;98.10
24518;DHT22;12678;51.336;12.406;2023-07-20T15:28:39;23.50;98.00